sensor_id;sensor_type;location;lat;lon;timestamp;P1;durP1;ratioP1;P2;durP2;ratioP2
16330;SDS011;8275;48.206;16.340;2022-09-09T00:00:29;0.95;;;0.70;;
16330;SDS011;8275;48.206;16.340;2022-09-09T00:03:02;0.35;;;0.35;;
16330;SDS011;8275;48.206;16.340;2022-09-09T00:05:41;0.30;;;0.30;;
16330;SDS011;8275;48.206;16.340;2022-09-09T00:08:19;0.82;;;0.73;;
16330;SDS011;8275;48.206;16.340;2022-09-09T00:10:53;0.60;;;0.60;;
16330;SDS011;8275;48.206;16.340;2022-09-09T00:13:31;0.75;;;0.65;;
16330;SDS011;8275;48.206;16.340;2022-09-09T00:16:08;0.40;;;0.40;;
16330;SDS011;8275;48.206;16.340;2022-09-09T00:18:49;0.93;;;0.93;;
16330;SDS011;8275;48.206;16.340;2022-09-09T00:21:25;0.50;;;0.50;;
16330;SDS011;8275;48.206;16.340;2022-09-09T00:24:00;0.75;;;0.68;;
16330;SDS011;8275;48.206;16.340;2022-09-09T00:26:40;1.55;;;0.50;;
16330;SDS011;8275;48.206;16.340;2022-09-09T00:29:17;1.05;;;0.93;;
16330;SDS011;8275;48.206;16.340;2022-09-09T00:31:53;1.10;;;1.00;;
16330;SDS011;8275;48.206;16.340;2022-09-09T00:34:25;0.52;;;0.52;;
16330;SDS011;8275;48.206;16.340;2022-09-09T00:36:55;0.55;;;0.55;;
16330;SDS011;8275;48.206;16.340;2022-09-09T00:39:34;0.85;;;0.40;;
16330;SDS011;8275;48.206;16.340;2022-09-09T00:42:11;0.50;;;0.50;;
16330;SDS011;8275;48.206;16.340;2022-09-09T00:44:52;0.35;;;0.35;;
16330;SDS011;8275;48.206;16.340;2022-09-09T00:47:38;1.10;;;0.50;;
16330;SDS011;8275;48.206;16.340;2022-09-09T00:50:17;0.82;;;0.82;;
16330;SDS011;8275;48.206;16.340;2022-09-09T00:53:07;0.30;;;0.30;;
16330;SDS011;8275;48.206;16.340;2022-09-09T00:55:53;1.45;;;0.40;;
16330;SDS011;8275;48.206;16.340;2022-09-09T00:58:33;0.50;;;0.50;;
16330;SDS011;8275;48.206;16.340;2022-09-09T01:01:04;1.38;;;1.15;;
16330;SDS011;8275;48.206;16.340;2022-09-09T01:03:37;0.77;;;0.50;;
16330;SDS011;8275;48.206;16.340;2022-09-09T01:06:18;0.98;;;0.98;;
16330;SDS011;8275;48.206;16.340;2022-09-09T01:09:02;0.70;;;0.70;;
16330;SDS011;8275;48.206;16.340;2022-09-09T01:11:44;1.35;;;0.75;;
16330;SDS011;8275;48.206;16.340;2022-09-09T01:14:29;0.73;;;0.60;;
16330;SDS011;8275;48.206;16.340;2022-09-09T01:17:14;0.47;;;0.47;;
16330;SDS011;8275;48.206;16.340;2022-09-09T01:19:52;0.80;;;0.80;;
16330;SDS011;8275;48.206;16.340;2022-09-09T01:22:33;0.40;;;0.40;;
16330;SDS011;8275;48.206;16.340;2022-09-09T01:25:11;1.00;;;0.70;;
16330;SDS011;8275;48.206;16.340;2022-09-09T01:27:57;1.05;;;0.95;;
16330;SDS011;8275;48.206;16.340;2022-09-09T01:30:29;0.63;;;0.63;;
16330;SDS011;8275;48.206;16.340;2022-09-09T01:33:00;0.60;;;0.60;;
16330;SDS011;8275;48.206;16.340;2022-09-09T01:35:32;2.05;;;1.27;;
16330;SDS011;8275;48.206;16.340;2022-09-09T01:38:10;0.50;;;0.50;;
16330;SDS011;8275;48.206;16.340;2022-09-09T01:40:39;0.77;;;0.77;;
16330;SDS011;8275;48.206;16.340;2022-09-09T01:43:09;0.38;;;0.38;;
16330;SDS011;8275;48.206;16.340;2022-09-09T01:45:38;0.40;;;0.40;;
16330;SDS011;8275;48.206;16.340;2022-09-09T01:48:09;0.60;;;0.60;;
16330;SDS011;8275;48.206;16.340;2022-09-09T01:50:37;1.50;;;1.40;;
16330;SDS011;8275;48.206;16.340;2022-09-09T01:53:05;0.85;;;0.85;;
16330;SDS011;8275;48.206;16.340;2022-09-09T01:55:37;2.53;;;0.57;;
16330;SDS011;8275;48.206;16.340;2022-09-09T01:58:13;0.40;;;0.40;;
16330;SDS011;8275;48.206;16.340;2022-09-09T02:00:56;0.50;;;0.50;;
16330;SDS011;8275;48.206;16.340;2022-09-09T02:03:33;0.40;;;0.40;;
16330;SDS011;8275;48.206;16.340;2022-09-09T02:06:05;0.55;;;0.40;;
16330;SDS011;8275;48.206;16.340;2022-09-09T02:08:46;0.35;;;0.30;;
16330;SDS011;8275;48.206;16.340;2022-09-09T02:11:18;1.02;;;0.93;;
16330;SDS011;8275;48.206;16.340;2022-09-09T02:13:51;0.43;;;0.43;;
16330;SDS011;8275;48.206;16.340;2022-09-09T02:16:23;0.68;;;0.68;;
16330;SDS011;8275;48.206;16.340;2022-09-09T02:18:57;1.85;;;0.60;;
16330;SDS011;8275;48.206;16.340;2022-09-09T02:21:32;0.85;;;0.65;;
16330;SDS011;8275;48.206;16.340;2022-09-09T02:24:04;0.70;;;0.70;;
16330;SDS011;8275;48.206;16.340;2022-09-09T02:26:37;0.52;;;0.52;;
16330;SDS011;8275;48.206;16.340;2022-09-09T02:29:13;0.60;;;0.50;;
16330;SDS011;8275;48.206;16.340;2022-09-09T02:31:46;0.30;;;0.30;;
16330;SDS011;8275;48.206;16.340;2022-09-09T02:34:17;0.68;;;0.68;;
16330;SDS011;8275;48.206;16.340;2022-09-09T02:36:50;0.70;;;0.70;;
16330;SDS011;8275;48.206;16.340;2022-09-09T02:39:22;1.45;;;1.15;;
16330;SDS011;8275;48.206;16.340;2022-09-09T02:41:51;0.73;;;0.40;;
16330;SDS011;8275;48.206;16.340;2022-09-09T02:44:21;0.50;;;0.50;;
16330;SDS011;8275;48.206;16.340;2022-09-09T02:46:58;1.65;;;1.20;;
16330;SDS011;8275;48.206;16.340;2022-09-09T02:49:46;0.90;;;0.90;;
16330;SDS011;8275;48.206;16.340;2022-09-09T02:52:30;0.70;;;0.70;;
16330;SDS011;8275;48.206;16.340;2022-09-09T02:55:12;1.08;;;0.95;;
16330;SDS011;8275;48.206;16.340;2022-09-09T02:57:49;0.30;;;0.30;;
16330;SDS011;8275;48.206;16.340;2022-09-09T03:00:24;0.82;;;0.60;;
16330;SDS011;8275;48.206;16.340;2022-09-09T03:02:54;1.95;;;0.93;;
16330;SDS011;8275;48.206;16.340;2022-09-09T03:05:23;0.80;;;0.55;;
16330;SDS011;8275;48.206;16.340;2022-09-09T03:07:52;0.63;;;0.57;;
16330;SDS011;8275;48.206;16.340;2022-09-09T03:10:20;0.40;;;0.40;;
16330;SDS011;8275;48.206;16.340;2022-09-09T03:12:49;1.05;;;1.02;;
16330;SDS011;8275;48.206;16.340;2022-09-09T03:15:17;0.52;;;0.52;;
16330;SDS011;8275;48.206;16.340;2022-09-09T03:17:48;0.63;;;0.63;;
16330;SDS011;8275;48.206;16.340;2022-09-09T03:20:17;0.22;;;0.22;;
16330;SDS011;8275;48.206;16.340;2022-09-09T03:22:45;0.45;;;0.45;;
16330;SDS011;8275;48.206;16.340;2022-09-09T03:25:14;0.73;;;0.65;;
16330;SDS011;8275;48.206;16.340;2022-09-09T03:27:42;0.57;;;0.30;;
16330;SDS011;8275;48.206;16.340;2022-09-09T03:30:11;0.50;;;0.40;;
16330;SDS011;8275;48.206;16.340;2022-09-09T03:32:40;1.20;;;0.70;;
16330;SDS011;8275;48.206;16.340;2022-09-09T03:35:15;1.10;;;0.75;;
16330;SDS011;8275;48.206;16.340;2022-09-09T03:37:44;0.55;;;0.52;;
16330;SDS011;8275;48.206;16.340;2022-09-09T03:40:13;0.45;;;0.45;;
16330;SDS011;8275;48.206;16.340;2022-09-09T03:42:41;0.60;;;0.60;;
16330;SDS011;8275;48.206;16.340;2022-09-09T03:45:10;0.50;;;0.50;;
16330;SDS011;8275;48.206;16.340;2022-09-09T03:47:38;0.52;;;0.52;;
16330;SDS011;8275;48.206;16.340;2022-09-09T03:50:10;0.43;;;0.43;;
16330;SDS011;8275;48.206;16.340;2022-09-09T03:52:40;2.08;;;1.15;;
16330;SDS011;8275;48.206;16.340;2022-09-09T03:55:10;1.75;;;1.15;;
16330;SDS011;8275;48.206;16.340;2022-09-09T03:57:38;0.82;;;0.47;;
16330;SDS011;8275;48.206;16.340;2022-09-09T04:00:07;0.73;;;0.70;;
16330;SDS011;8275;48.206;16.340;2022-09-09T04:02:38;0.75;;;0.60;;
16330;SDS011;8275;48.206;16.340;2022-09-09T04:05:06;0.73;;;0.50;;
16330;SDS011;8275;48.206;16.340;2022-09-09T04:07:36;0.65;;;0.38;;
16330;SDS011;8275;48.206;16.340;2022-09-09T04:10:07;0.63;;;0.52;;
16330;SDS011;8275;48.206;16.340;2022-09-09T04:12:36;0.80;;;0.80;;
16330;SDS011;8275;48.206;16.340;2022-09-09T04:15:05;0.50;;;0.50;;
16330;SDS011;8275;48.206;16.340;2022-09-09T04:17:34;0.50;;;0.50;;
16330;SDS011;8275;48.206;16.340;2022-09-09T04:20:03;1.02;;;1.02;;
16330;SDS011;8275;48.206;16.340;2022-09-09T04:22:33;0.52;;;0.52;;
16330;SDS011;8275;48.206;16.340;2022-09-09T04:25:02;0.50;;;0.50;;
16330;SDS011;8275;48.206;16.340;2022-09-09T04:27:33;0.70;;;0.68;;
16330;SDS011;8275;48.206;16.340;2022-09-09T04:30:01;1.63;;;0.95;;
16330;SDS011;8275;48.206;16.340;2022-09-09T04:32:32;1.88;;;0.90;;
16330;SDS011;8275;48.206;16.340;2022-09-09T04:35:00;0.70;;;0.70;;
16330;SDS011;8275;48.206;16.340;2022-09-09T04:37:29;1.17;;;0.55;;
16330;SDS011;8275;48.206;16.340;2022-09-09T04:39:57;0.77;;;0.77;;
16330;SDS011;8275;48.206;16.340;2022-09-09T04:42:29;1.00;;;0.80;;
16330;SDS011;8275;48.206;16.340;2022-09-09T04:44:58;0.70;;;0.70;;
16330;SDS011;8275;48.206;16.340;2022-09-09T04:47:27;5.88;;;1.27;;
16330;SDS011;8275;48.206;16.340;2022-09-09T04:49:56;0.60;;;0.50;;
16330;SDS011;8275;48.206;16.340;2022-09-09T04:52:24;0.75;;;0.75;;
16330;SDS011;8275;48.206;16.340;2022-09-09T04:54:52;0.70;;;0.70;;
16330;SDS011;8275;48.206;16.340;2022-09-09T04:57:21;2.90;;;1.85;;
16330;SDS011;8275;48.206;16.340;2022-09-09T04:59:50;1.10;;;0.88;;
16330;SDS011;8275;48.206;16.340;2022-09-09T05:02:20;0.75;;;0.75;;
16330;SDS011;8275;48.206;16.340;2022-09-09T05:04:48;0.52;;;0.50;;
16330;SDS011;8275;48.206;16.340;2022-09-09T05:07:16;1.35;;;0.98;;
16330;SDS011;8275;48.206;16.340;2022-09-09T05:09:45;0.90;;;0.90;;
16330;SDS011;8275;48.206;16.340;2022-09-09T05:12:15;1.20;;;0.95;;
16330;SDS011;8275;48.206;16.340;2022-09-09T05:14:43;1.33;;;1.15;;
16330;SDS011;8275;48.206;16.340;2022-09-09T05:17:12;2.72;;;1.80;;
16330;SDS011;8275;48.206;16.340;2022-09-09T05:19:43;1.70;;;1.52;;
16330;SDS011;8275;48.206;16.340;2022-09-09T05:22:12;1.20;;;1.10;;
16330;SDS011;8275;48.206;16.340;2022-09-09T05:24:40;0.75;;;0.75;;
16330;SDS011;8275;48.206;16.340;2022-09-09T05:27:09;1.25;;;1.15;;
16330;SDS011;8275;48.206;16.340;2022-09-09T05:29:41;1.38;;;1.27;;
16330;SDS011;8275;48.206;16.340;2022-09-09T05:32:10;1.05;;;0.95;;
16330;SDS011;8275;48.206;16.340;2022-09-09T05:34:40;1.40;;;1.30;;
16330;SDS011;8275;48.206;16.340;2022-09-09T05:37:10;0.90;;;0.90;;
16330;SDS011;8275;48.206;16.340;2022-09-09T05:39:38;1.00;;;1.00;;
16330;SDS011;8275;48.206;16.340;2022-09-09T05:42:07;1.58;;;1.40;;
16330;SDS011;8275;48.206;16.340;2022-09-09T05:44:35;0.88;;;0.82;;
16330;SDS011;8275;48.206;16.340;2022-09-09T05:47:04;1.00;;;0.98;;
16330;SDS011;8275;48.206;16.340;2022-09-09T05:49:34;1.17;;;1.10;;
16330;SDS011;8275;48.206;16.340;2022-09-09T05:52:02;1.30;;;1.20;;
16330;SDS011;8275;48.206;16.340;2022-09-09T05:54:33;1.00;;;1.00;;
16330;SDS011;8275;48.206;16.340;2022-09-09T05:57:03;1.50;;;1.40;;
16330;SDS011;8275;48.206;16.340;2022-09-09T05:59:32;2.50;;;1.38;;
16330;SDS011;8275;48.206;16.340;2022-09-09T06:02:00;1.10;;;1.00;;
16330;SDS011;8275;48.206;16.340;2022-09-09T06:04:29;1.23;;;1.13;;
16330;SDS011;8275;48.206;16.340;2022-09-09T06:06:57;1.25;;;1.15;;
16330;SDS011;8275;48.206;16.340;2022-09-09T06:09:25;1.45;;;0.90;;
16330;SDS011;8275;48.206;16.340;2022-09-09T06:11:56;1.25;;;1.25;;
16330;SDS011;8275;48.206;16.340;2022-09-09T06:14:25;0.82;;;0.82;;
16330;SDS011;8275;48.206;16.340;2022-09-09T06:16:53;1.88;;;1.73;;
16330;SDS011;8275;48.206;16.340;2022-09-09T06:19:22;2.38;;;1.85;;
16330;SDS011;8275;48.206;16.340;2022-09-09T06:21:53;2.28;;;1.67;;
16330;SDS011;8275;48.206;16.340;2022-09-09T06:24:21;1.77;;;1.67;;
16330;SDS011;8275;48.206;16.340;2022-09-09T06:26:50;1.73;;;1.30;;
16330;SDS011;8275;48.206;16.340;2022-09-09T06:29:20;1.73;;;1.38;;
16330;SDS011;8275;48.206;16.340;2022-09-09T06:31:48;3.67;;;1.92;;
16330;SDS011;8275;48.206;16.340;2022-09-09T06:34:17;2.15;;;1.38;;
16330;SDS011;8275;48.206;16.340;2022-09-09T06:36:45;1.52;;;1.42;;
16330;SDS011;8275;48.206;16.340;2022-09-09T06:39:14;2.17;;;1.40;;
16330;SDS011;8275;48.206;16.340;2022-09-09T06:41:42;5.93;;;1.90;;
16330;SDS011;8275;48.206;16.340;2022-09-09T06:44:10;2.67;;;2.47;;
16330;SDS011;8275;48.206;16.340;2022-09-09T06:46:40;1.77;;;1.67;;
16330;SDS011;8275;48.206;16.340;2022-09-09T06:49:09;2.05;;;1.85;;
16330;SDS011;8275;48.206;16.340;2022-09-09T06:51:38;2.90;;;1.65;;
16330;SDS011;8275;48.206;16.340;2022-09-09T06:54:09;2.15;;;1.50;;
16330;SDS011;8275;48.206;16.340;2022-09-09T06:56:39;1.67;;;1.52;;
16330;SDS011;8275;48.206;16.340;2022-09-09T06:59:10;2.88;;;1.50;;
16330;SDS011;8275;48.206;16.340;2022-09-09T07:01:41;1.70;;;1.60;;
16330;SDS011;8275;48.206;16.340;2022-09-09T07:04:11;1.60;;;1.50;;
16330;SDS011;8275;48.206;16.340;2022-09-09T07:06:40;2.58;;;2.30;;
16330;SDS011;8275;48.206;16.340;2022-09-09T07:09:11;2.20;;;2.05;;
16330;SDS011;8275;48.206;16.340;2022-09-09T07:11:43;3.90;;;2.70;;
16330;SDS011;8275;48.206;16.340;2022-09-09T07:14:13;6.95;;;2.33;;
16330;SDS011;8275;48.206;16.340;2022-09-09T07:16:44;4.30;;;1.83;;
16330;SDS011;8275;48.206;16.340;2022-09-09T07:19:13;5.22;;;2.08;;
16330;SDS011;8275;48.206;16.340;2022-09-09T07:21:42;5.68;;;2.15;;
16330;SDS011;8275;48.206;16.340;2022-09-09T07:24:11;2.63;;;1.58;;
16330;SDS011;8275;48.206;16.340;2022-09-09T07:26:39;1.85;;;1.75;;
16330;SDS011;8275;48.206;16.340;2022-09-09T07:29:08;2.97;;;1.65;;
16330;SDS011;8275;48.206;16.340;2022-09-09T07:31:47;2.83;;;2.55;;
16330;SDS011;8275;48.206;16.340;2022-09-09T07:34:15;13.27;;;2.85;;
16330;SDS011;8275;48.206;16.340;2022-09-09T07:36:48;4.32;;;2.08;;
16330;SDS011;8275;48.206;16.340;2022-09-09T07:39:16;2.33;;;1.83;;
16330;SDS011;8275;48.206;16.340;2022-09-09T07:41:45;3.00;;;1.10;;
16330;SDS011;8275;48.206;16.340;2022-09-09T07:44:16;1.70;;;1.60;;
16330;SDS011;8275;48.206;16.340;2022-09-09T07:46:49;3.35;;;2.05;;
16330;SDS011;8275;48.206;16.340;2022-09-09T07:49:17;3.13;;;1.98;;
16330;SDS011;8275;48.206;16.340;2022-09-09T07:51:55;2.22;;;1.80;;
16330;SDS011;8275;48.206;16.340;2022-09-09T07:54:23;1.90;;;1.80;;
16330;SDS011;8275;48.206;16.340;2022-09-09T07:56:52;3.03;;;1.52;;
16330;SDS011;8275;48.206;16.340;2022-09-09T07:59:21;2.40;;;2.17;;
16330;SDS011;8275;48.206;16.340;2022-09-09T08:01:52;8.63;;;2.28;;
16330;SDS011;8275;48.206;16.340;2022-09-09T08:04:22;2.45;;;2.00;;
16330;SDS011;8275;48.206;16.340;2022-09-09T08:06:53;3.17;;;2.03;;
16330;SDS011;8275;48.206;16.340;2022-09-09T08:09:24;3.67;;;2.33;;
16330;SDS011;8275;48.206;16.340;2022-09-09T08:11:55;2.53;;;1.70;;
16330;SDS011;8275;48.206;16.340;2022-09-09T08:14:25;1.92;;;1.77;;
16330;SDS011;8275;48.206;16.340;2022-09-09T08:16:55;2.40;;;2.20;;
16330;SDS011;8275;48.206;16.340;2022-09-09T08:19:24;7.40;;;2.00;;
16330;SDS011;8275;48.206;16.340;2022-09-09T08:21:55;2.00;;;1.83;;
16330;SDS011;8275;48.206;16.340;2022-09-09T08:24:24;1.95;;;1.50;;
16330;SDS011;8275;48.206;16.340;2022-09-09T08:26:52;4.13;;;1.63;;
16330;SDS011;8275;48.206;16.340;2022-09-09T08:29:21;1.70;;;1.60;;
16330;SDS011;8275;48.206;16.340;2022-09-09T08:31:50;1.85;;;1.70;;
16330;SDS011;8275;48.206;16.340;2022-09-09T08:34:22;2.45;;;1.35;;
16330;SDS011;8275;48.206;16.340;2022-09-09T08:36:53;3.40;;;1.90;;
16330;SDS011;8275;48.206;16.340;2022-09-09T08:39:22;1.48;;;1.35;;
16330;SDS011;8275;48.206;16.340;2022-09-09T08:41:54;1.95;;;1.75;;
16330;SDS011;8275;48.206;16.340;2022-09-09T08:45:14;7.60;;;2.63;;
16330;SDS011;8275;48.206;16.340;2022-09-09T08:48:01;2.20;;;1.27;;
16330;SDS011;8275;48.206;16.340;2022-09-09T08:50:53;1.67;;;1.48;;
16330;SDS011;8275;48.206;16.340;2022-09-09T08:53:28;3.63;;;1.83;;
16330;SDS011;8275;48.206;16.340;2022-09-09T08:56:08;0.80;;;0.80;;
16330;SDS011;8275;48.206;16.340;2022-09-09T08:58:42;2.75;;;1.27;;
16330;SDS011;8275;48.206;16.340;2022-09-09T09:01:26;2.47;;;1.80;;
16330;SDS011;8275;48.206;16.340;2022-09-09T09:04:11;1.15;;;1.02;;
16330;SDS011;8275;48.206;16.340;2022-09-09T09:06:59;1.45;;;1.35;;
16330;SDS011;8275;48.206;16.340;2022-09-09T09:09:38;7.35;;;1.45;;
16330;SDS011;8275;48.206;16.340;2022-09-09T09:12:16;4.43;;;1.42;;
16330;SDS011;8275;48.206;16.340;2022-09-09T09:14:49;2.10;;;1.20;;
16330;SDS011;8275;48.206;16.340;2022-09-09T09:17:18;3.35;;;1.52;;
16330;SDS011;8275;48.206;16.340;2022-09-09T09:19:48;1.30;;;1.20;;
16330;SDS011;8275;48.206;16.340;2022-09-09T09:22:20;1.23;;;1.13;;
16330;SDS011;8275;48.206;16.340;2022-09-09T09:24:51;1.02;;;0.95;;
16330;SDS011;8275;48.206;16.340;2022-09-09T09:27:25;0.95;;;0.95;;
16330;SDS011;8275;48.206;16.340;2022-09-09T09:30:02;1.27;;;1.17;;
16330;SDS011;8275;48.206;16.340;2022-09-09T09:32:54;0.73;;;0.55;;
16330;SDS011;8275;48.206;16.340;2022-09-09T09:35:27;2.78;;;1.23;;
16330;SDS011;8275;48.206;16.340;2022-09-09T09:37:57;1.95;;;1.17;;
16330;SDS011;8275;48.206;16.340;2022-09-09T09:40:49;0.80;;;0.57;;
16330;SDS011;8275;48.206;16.340;2022-09-09T09:43:20;2.38;;;1.05;;
16330;SDS011;8275;48.206;16.340;2022-09-09T09:45:53;1.80;;;1.10;;
16330;SDS011;8275;48.206;16.340;2022-09-09T09:48:43;0.90;;;0.90;;
16330;SDS011;8275;48.206;16.340;2022-09-09T09:51:13;0.75;;;0.75;;
16330;SDS011;8275;48.206;16.340;2022-09-09T09:53:52;1.95;;;1.38;;
16330;SDS011;8275;48.206;16.340;2022-09-09T09:56:27;1.60;;;1.50;;
16330;SDS011;8275;48.206;16.340;2022-09-09T09:58:56;2.15;;;1.50;;
16330;SDS011;8275;48.206;16.340;2022-09-09T10:01:34;2.08;;;0.95;;
16330;SDS011;8275;48.206;16.340;2022-09-09T10:04:14;2.13;;;1.67;;
16330;SDS011;8275;48.206;16.340;2022-09-09T10:06:46;0.98;;;0.98;;
16330;SDS011;8275;48.206;16.340;2022-09-09T10:09:22;1.42;;;1.33;;
16330;SDS011;8275;48.206;16.340;2022-09-09T10:11:55;1.05;;;1.00;;
16330;SDS011;8275;48.206;16.340;2022-09-09T10:14:33;0.82;;;0.80;;
16330;SDS011;8275;48.206;16.340;2022-09-09T10:17:10;3.88;;;0.90;;
16330;SDS011;8275;48.206;16.340;2022-09-09T10:19:53;1.67;;;0.90;;
16330;SDS011;8275;48.206;16.340;2022-09-09T10:22:38;1.20;;;0.82;;
16330;SDS011;8275;48.206;16.340;2022-09-09T10:28:10;0.90;;;0.82;;
16330;SDS011;8275;48.206;16.340;2022-09-09T10:31:11;1.42;;;1.33;;
16330;SDS011;8275;48.206;16.340;2022-09-09T10:33:50;1.55;;;1.45;;
16330;SDS011;8275;48.206;16.340;2022-09-09T10:36:27;1.73;;;1.63;;
16330;SDS011;8275;48.206;16.340;2022-09-09T10:38:57;1.27;;;1.17;;
16330;SDS011;8275;48.206;16.340;2022-09-09T10:41:35;1.77;;;1.52;;
16330;SDS011;8275;48.206;16.340;2022-09-09T10:44:29;3.10;;;1.42;;
16330;SDS011;8275;48.206;16.340;2022-09-09T10:50:26;1.20;;;1.10;;
16330;SDS011;8275;48.206;16.340;2022-09-09T10:53:31;4.07;;;1.85;;
16330;SDS011;8275;48.206;16.340;2022-09-09T10:56:21;1.65;;;1.30;;
16330;SDS011;8275;48.206;16.340;2022-09-09T10:58:53;1.75;;;1.65;;
16330;SDS011;8275;48.206;16.340;2022-09-09T11:01:29;1.48;;;1.40;;
16330;SDS011;8275;48.206;16.340;2022-09-09T11:04:05;2.00;;;1.48;;
16330;SDS011;8275;48.206;16.340;2022-09-09T11:06:41;8.10;;;1.30;;
16330;SDS011;8275;48.206;16.340;2022-09-09T11:09:19;1.48;;;1.38;;
16330;SDS011;8275;48.206;16.340;2022-09-09T11:11:52;1.55;;;1.05;;
16330;SDS011;8275;48.206;16.340;2022-09-09T11:14:26;1.70;;;1.35;;
16330;SDS011;8275;48.206;16.340;2022-09-09T11:17:03;0.98;;;0.98;;
16330;SDS011;8275;48.206;16.340;2022-09-09T11:19:38;1.08;;;1.08;;
16330;SDS011;8275;48.206;16.340;2022-09-09T11:22:14;1.10;;;1.02;;
16330;SDS011;8275;48.206;16.340;2022-09-09T11:24:52;1.15;;;0.95;;
16330;SDS011;8275;48.206;16.340;2022-09-09T11:27:27;1.63;;;1.08;;
16330;SDS011;8275;48.206;16.340;2022-09-09T11:33:28;1.52;;;0.90;;
16330;SDS011;8275;48.206;16.340;2022-09-09T11:36:28;0.88;;;0.88;;
16330;SDS011;8275;48.206;16.340;2022-09-09T11:39:30;1.80;;;1.10;;
16330;SDS011;8275;48.206;16.340;2022-09-09T11:42:16;1.15;;;1.05;;
16330;SDS011;8275;48.206;16.340;2022-09-09T11:44:47;1.48;;;0.70;;
16330;SDS011;8275;48.206;16.340;2022-09-09T11:47:20;1.10;;;1.05;;
16330;SDS011;8275;48.206;16.340;2022-09-09T11:50:06;1.50;;;1.20;;
16330;SDS011;8275;48.206;16.340;2022-09-09T11:56:06;1.02;;;1.00;;
16330;SDS011;8275;48.206;16.340;2022-09-09T11:58:41;1.67;;;1.02;;
16330;SDS011;8275;48.206;16.340;2022-09-09T12:01:28;4.75;;;1.88;;
16330;SDS011;8275;48.206;16.340;2022-09-09T12:04:09;1.48;;;1.38;;
16330;SDS011;8275;48.206;16.340;2022-09-09T12:07:04;2.25;;;2.00;;
16330;SDS011;8275;48.206;16.340;2022-09-09T12:09:59;5.55;;;5.13;;
16330;SDS011;8275;48.206;16.340;2022-09-09T12:12:33;3.88;;;1.70;;
16330;SDS011;8275;48.206;16.340;2022-09-09T12:17:57;1.17;;;1.08;;
16330;SDS011;8275;48.206;16.340;2022-09-09T12:20:34;4.38;;;3.97;;
16330;SDS011;8275;48.206;16.340;2022-09-09T12:23:19;3.88;;;3.08;;
16330;SDS011;8275;48.206;16.340;2022-09-09T12:26:00;1.65;;;1.55;;
16330;SDS011;8275;48.206;16.340;2022-09-09T12:28:40;1.63;;;1.42;;
16330;SDS011;8275;48.206;16.340;2022-09-09T12:31:21;1.73;;;1.17;;
16330;SDS011;8275;48.206;16.340;2022-09-09T12:33:54;1.98;;;1.77;;
16330;SDS011;8275;48.206;16.340;2022-09-09T12:36:31;1.30;;;1.20;;
16330;SDS011;8275;48.206;16.340;2022-09-09T12:39:09;3.83;;;1.60;;
16330;SDS011;8275;48.206;16.340;2022-09-09T12:41:50;1.10;;;1.10;;
16330;SDS011;8275;48.206;16.340;2022-09-09T12:44:24;1.27;;;0.88;;
16330;SDS011;8275;48.206;16.340;2022-09-09T12:46:54;3.95;;;1.50;;
16330;SDS011;8275;48.206;16.340;2022-09-09T12:49:27;1.05;;;1.05;;
16330;SDS011;8275;48.206;16.340;2022-09-09T12:52:03;0.80;;;0.80;;
16330;SDS011;8275;48.206;16.340;2022-09-09T12:54:36;0.75;;;0.75;;
16330;SDS011;8275;48.206;16.340;2022-09-09T12:57:05;0.65;;;0.65;;
16330;SDS011;8275;48.206;16.340;2022-09-09T12:59:40;1.73;;;1.40;;
16330;SDS011;8275;48.206;16.340;2022-09-09T13:02:16;1.15;;;0.85;;
16330;SDS011;8275;48.206;16.340;2022-09-09T13:04:49;0.80;;;0.80;;
16330;SDS011;8275;48.206;16.340;2022-09-09T13:07:23;0.70;;;0.70;;
16330;SDS011;8275;48.206;16.340;2022-09-09T13:09:52;1.13;;;0.80;;
16330;SDS011;8275;48.206;16.340;2022-09-09T13:12:21;2.00;;;1.50;;
16330;SDS011;8275;48.206;16.340;2022-09-09T13:14:51;1.33;;;1.23;;
16330;SDS011;8275;48.206;16.340;2022-09-09T13:17:24;1.23;;;0.85;;
16330;SDS011;8275;48.206;16.340;2022-09-09T13:19:55;2.75;;;2.55;;
16330;SDS011;8275;48.206;16.340;2022-09-09T13:22:28;2.47;;;2.15;;
16330;SDS011;8275;48.206;16.340;2022-09-09T13:25:01;1.30;;;1.20;;
16330;SDS011;8275;48.206;16.340;2022-09-09T13:27:41;0.70;;;0.70;;
16330;SDS011;8275;48.206;16.340;2022-09-09T13:30:21;0.98;;;0.95;;
16330;SDS011;8275;48.206;16.340;2022-09-09T13:35:51;2.67;;;1.10;;
16330;SDS011;8275;48.206;16.340;2022-09-09T13:38:25;1.05;;;0.95;;
16330;SDS011;8275;48.206;16.340;2022-09-09T13:40:56;2.58;;;1.35;;
16330;SDS011;8275;48.206;16.340;2022-09-09T13:43:28;0.80;;;0.80;;
16330;SDS011;8275;48.206;16.340;2022-09-09T13:46:02;0.82;;;0.80;;
16330;SDS011;8275;48.206;16.340;2022-09-09T13:48:34;1.98;;;1.70;;
16330;SDS011;8275;48.206;16.340;2022-09-09T13:51:03;1.27;;;1.23;;
16330;SDS011;8275;48.206;16.340;2022-09-09T13:53:33;1.27;;;1.20;;
16330;SDS011;8275;48.206;16.340;2022-09-09T13:56:02;2.17;;;1.20;;
16330;SDS011;8275;48.206;16.340;2022-09-09T13:58:30;1.30;;;1.20;;
16330;SDS011;8275;48.206;16.340;2022-09-09T14:00:59;2.25;;;2.15;;
16330;SDS011;8275;48.206;16.340;2022-09-09T14:03:27;1.48;;;1.38;;
16330;SDS011;8275;48.206;16.340;2022-09-09T14:05:56;1.92;;;0.90;;
16330;SDS011;8275;48.206;16.340;2022-09-09T14:08:25;1.25;;;1.00;;
16330;SDS011;8275;48.206;16.340;2022-09-09T14:11:05;0.85;;;0.85;;
16330;SDS011;8275;48.206;16.340;2022-09-09T14:13:38;2.03;;;1.83;;
16330;SDS011;8275;48.206;16.340;2022-09-09T14:16:06;1.67;;;1.00;;
16330;SDS011;8275;48.206;16.340;2022-09-09T14:18:36;4.50;;;2.03;;
16330;SDS011;8275;48.206;16.340;2022-09-09T14:21:05;1.42;;;1.33;;
16330;SDS011;8275;48.206;16.340;2022-09-09T14:23:35;4.05;;;1.88;;
16330;SDS011;8275;48.206;16.340;2022-09-09T14:26:05;1.58;;;1.10;;
16330;SDS011;8275;48.206;16.340;2022-09-09T14:28:35;2.50;;;2.15;;
16330;SDS011;8275;48.206;16.340;2022-09-09T14:31:22;2.97;;;2.67;;
16330;SDS011;8275;48.206;16.340;2022-09-09T14:33:51;3.08;;;1.75;;
16330;SDS011;8275;48.206;16.340;2022-09-09T14:36:19;4.22;;;2.15;;
16330;SDS011;8275;48.206;16.340;2022-09-09T14:38:49;1.88;;;1.42;;
16330;SDS011;8275;48.206;16.340;2022-09-09T14:41:20;2.85;;;1.60;;
16330;SDS011;8275;48.206;16.340;2022-09-09T14:43:49;1.60;;;1.50;;
16330;SDS011;8275;48.206;16.340;2022-09-09T14:46:19;1.85;;;1.75;;
16330;SDS011;8275;48.206;16.340;2022-09-09T14:48:48;2.45;;;1.50;;
16330;SDS011;8275;48.206;16.340;2022-09-09T14:51:17;1.67;;;1.58;;
16330;SDS011;8275;48.206;16.340;2022-09-09T14:53:50;2.13;;;1.92;;
16330;SDS011;8275;48.206;16.340;2022-09-09T14:56:22;1.27;;;1.23;;
16330;SDS011;8275;48.206;16.340;2022-09-09T14:58:52;2.83;;;1.40;;
16330;SDS011;8275;48.206;16.340;2022-09-09T15:01:22;2.05;;;1.95;;
16330;SDS011;8275;48.206;16.340;2022-09-09T15:03:54;1.98;;;1.52;;
16330;SDS011;8275;48.206;16.340;2022-09-09T15:06:25;1.83;;;1.73;;
16330;SDS011;8275;48.206;16.340;2022-09-09T15:08:56;1.50;;;1.40;;
16330;SDS011;8275;48.206;16.340;2022-09-09T15:11:27;2.95;;;1.70;;
16330;SDS011;8275;48.206;16.340;2022-09-09T15:13:58;2.88;;;1.35;;
16330;SDS011;8275;48.206;16.340;2022-09-09T15:16:27;0.80;;;0.80;;
16330;SDS011;8275;48.206;16.340;2022-09-09T15:18:56;4.40;;;1.80;;
16330;SDS011;8275;48.206;16.340;2022-09-09T15:21:27;2.83;;;1.25;;
16330;SDS011;8275;48.206;16.340;2022-09-09T15:23:59;1.52;;;1.35;;
16330;SDS011;8275;48.206;16.340;2022-09-09T15:26:29;1.25;;;1.00;;
16330;SDS011;8275;48.206;16.340;2022-09-09T15:28:58;3.00;;;1.85;;
16330;SDS011;8275;48.206;16.340;2022-09-09T15:31:27;1.20;;;1.10;;
16330;SDS011;8275;48.206;16.340;2022-09-09T15:33:58;5.72;;;1.73;;
16330;SDS011;8275;48.206;16.340;2022-09-09T15:36:30;4.82;;;1.70;;
16330;SDS011;8275;48.206;16.340;2022-09-09T15:39:00;1.88;;;1.77;;
16330;SDS011;8275;48.206;16.340;2022-09-09T15:41:37;2.60;;;2.40;;
16330;SDS011;8275;48.206;16.340;2022-09-09T15:44:06;2.17;;;1.85;;